Terminal Aerodrome Forecast
Issued by NWS Duluth, MN

Home | Current Version | Previous Version | Text Only | Print | Product List | Glossary On
Versions: 1 2 3 4 5 6 7 8 9 10 11 12 13 14 15 16 17 18 19 20 21
163
FTUS43 KDLH 221740
TAFINL
TAF
KINL 221740Z 2218/2318 35006KT P6SM VCSH SCT014 BKN028
      TEMPO 2218/2220 3SM -RA BR FEW007 BKN014
     FM222000 32007KT 6SM -SHRA BR OVC015
     FM222300 34006KT P6SM VCSH OVC020
     FM230500 01006KT 4SM BR VCSH OVC008
     FM231600 03008KT P6SM VCSH OVC010=

USA.gov is the U.S. government's official web portal to all federal, state and local government web resources and services.